createdAt,value
2023-12-05T00:00:46.115Z,4.50
2023-12-05T00:03:14.095Z,9.50
2023-12-05T00:05:42.588Z,5.33
2023-12-05T00:08:10.444Z,3.43
2023-12-05T00:10:38.221Z,10.73
2023-12-05T00:13:08.489Z,7.30
2023-12-05T00:15:36.353Z,5.87
2023-12-05T00:18:04.392Z,4.20
2023-12-05T00:20:32.189Z,11.17
2023-12-05T00:22:59.981Z,7.17
2023-12-05T00:25:27.761Z,3.80
2023-12-05T00:27:55.625Z,8.40
2023-12-05T00:30:24.880Z,6.23
2023-12-05T00:32:52.728Z,4.17
2023-12-05T00:35:21.098Z,5.43
2023-12-05T00:37:49.036Z,6.37
2023-12-05T00:40:16.823Z,4.60
2023-12-05T00:42:44.611Z,7.40
2023-12-05T00:45:15.301Z,5.77
2023-12-05T00:47:43.144Z,6.57
2023-12-05T00:50:10.950Z,5.13
2023-12-05T00:52:38.811Z,5.00
2023-12-05T00:55:06.675Z,10.10
2023-12-05T00:57:34.953Z,4.47
2023-12-05T01:00:02.749Z,8.47
2023-12-05T01:02:31.340Z,5.33
2023-12-05T01:04:59.317Z,9.37
2023-12-05T01:07:27.663Z,4.17
2023-12-05T01:09:55.548Z,4.50
2023-12-05T01:12:23.364Z,7.90
2023-12-05T01:15:00.670Z,10.70
2023-12-05T01:17:28.549Z,7.30
2023-12-05T01:19:56.783Z,9.53
2023-12-05T01:22:24.621Z,6.10
2023-12-05T01:24:55.957Z,6.37
2023-12-05T01:27:23.859Z,9.30
2023-12-05T01:29:51.657Z,9.33
2023-12-05T01:32:19.452Z,7.87
2023-12-05T01:34:47.271Z,7.07
2023-12-05T01:37:15.027Z,5.53
2023-12-05T01:39:42.843Z,6.33
2023-12-05T01:42:10.587Z,8.67
2023-12-05T01:44:38.512Z,6.53
2023-12-05T01:47:06.800Z,7.47
2023-12-05T01:49:37.064Z,5.20
2023-12-05T01:52:05.601Z,4.30
2023-12-05T01:54:33.609Z,4.27
2023-12-05T01:57:01.560Z,14.50
2023-12-05T01:59:29.394Z,9.93
2023-12-05T02:01:57.379Z,4.63
2023-12-05T02:04:25.473Z,2.27
2023-12-05T02:06:53.411Z,6.07
2023-12-05T02:09:21.357Z,5.57
2023-12-05T02:11:49.142Z,2.30
2023-12-05T02:14:16.891Z,2.67
2023-12-05T02:17:05.717Z,3.27
2023-12-05T02:19:43.516Z,3.93
2023-12-05T02:22:28.669Z,3.50
2023-12-05T02:25:02.670Z,4.07
2023-12-05T02:27:35.815Z,3.47
2023-12-05T02:30:04.105Z,2.60
2023-12-05T02:32:31.856Z,7.73
2023-12-05T02:35:00.283Z,3.97
2023-12-05T02:37:49.829Z,4.77
2023-12-05T02:40:33.527Z,2.97
2023-12-05T02:43:04.184Z,4.87
2023-12-05T02:45:32.325Z,7.03
2023-12-05T02:48:00.379Z,7.53
2023-12-05T02:50:28.390Z,8.00
2023-12-05T02:52:56.203Z,3.73
2023-12-05T02:55:23.960Z,5.37
2023-12-05T02:57:52.056Z,35.23
2023-12-05T03:00:20.840Z,8.33
2023-12-05T03:02:48.705Z,12.83
2023-12-05T03:05:18.143Z,14.73
2023-12-05T03:07:46.106Z,12.97
2023-12-05T03:10:13.905Z,67.77
2023-12-05T03:12:41.753Z,14.53
2023-12-05T03:15:10.017Z,8.53
2023-12-05T03:17:38.058Z,4.47
2023-12-05T03:20:06.854Z,6.00
2023-12-05T03:22:34.695Z,11.43
2023-12-05T03:25:02.459Z,6.07
2023-12-05T03:27:30.293Z,6.47
2023-12-05T03:29:58.059Z,2.83
2023-12-05T03:32:25.871Z,10.67
2023-12-05T03:34:53.672Z,13.97
2023-12-05T03:37:21.470Z,4.90
2023-12-05T03:39:49.248Z,3.57
2023-12-05T03:42:17.100Z,3.77
2023-12-05T03:44:44.824Z,2.97
2023-12-05T03:47:12.588Z,2.50
2023-12-05T03:49:40.338Z,4.40
2023-12-05T03:52:08.166Z,6.90
2023-12-05T03:54:36.012Z,3.53
2023-12-05T03:57:03.979Z,3.20
2023-12-05T03:59:31.727Z,2.43
2023-12-05T04:01:59.521Z,6.97
2023-12-05T04:04:27.442Z,3.03
2023-12-05T04:06:55.317Z,2.67
2023-12-05T04:09:23.568Z,4.57
2023-12-05T04:11:51.338Z,6.67
2023-12-05T04:14:19.075Z,11.80
2023-12-05T04:16:46.854Z,12.07
2023-12-05T04:19:14.764Z,3.80
2023-12-05T04:21:42.607Z,5.57
2023-12-05T04:24:10.446Z,6.20
2023-12-05T04:26:38.237Z,6.37
2023-12-05T04:29:06.032Z,8.13
2023-12-05T04:31:33.733Z,192.07
2023-12-05T04:34:02.070Z,32.33
2023-12-05T04:36:29.941Z,9.63
2023-12-05T04:38:57.764Z,10.70
2023-12-05T04:41:25.490Z,4.87
2023-12-05T04:43:53.593Z,7.20
2023-12-05T04:46:21.364Z,13.33
2023-12-05T04:48:49.264Z,5.53
2023-12-05T04:51:20.957Z,5.07
2023-12-05T04:53:48.733Z,9.47
2023-12-05T04:56:16.528Z,6.03
2023-12-05T04:58:44.319Z,2.17
2023-12-05T05:01:12.054Z,5.10
2023-12-05T05:03:39.970Z,4.43
2023-12-05T05:06:08.051Z,5.53
2023-12-05T05:08:35.933Z,3.00
2023-12-05T05:11:03.936Z,4.20
2023-12-05T05:13:33.656Z,4.37
2023-12-05T05:16:01.545Z,1.93
2023-12-05T05:18:29.931Z,2.83
2023-12-05T05:20:57.712Z,7.30
2023-12-05T05:23:25.588Z,5.23
2023-12-05T05:25:53.415Z,7.90
2023-12-05T05:28:21.230Z,3.57
2023-12-05T05:30:49.684Z,8.37
2023-12-05T05:33:17.597Z,6.57
2023-12-05T05:35:45.485Z,9.80
2023-12-05T05:38:13.195Z,18.77
2023-12-05T05:40:44.205Z,6.43
2023-12-05T05:43:12.018Z,16.43
2023-12-05T05:45:39.837Z,8.60
2023-12-05T05:48:07.694Z,12.53
2023-12-05T05:50:37.303Z,9.40
2023-12-05T05:53:05.045Z,9.87
2023-12-05T05:55:33.554Z,9.07
2023-12-05T05:58:01.321Z,16.20
2023-12-05T06:00:29.167Z,7.00
2023-12-05T06:02:56.935Z,7.40
2023-12-05T06:05:26.069Z,12.10
2023-12-05T06:07:53.913Z,13.27
2023-12-05T06:10:21.888Z,12.07
2023-12-05T06:12:49.598Z,10.10
2023-12-05T06:15:17.535Z,11.93
2023-12-05T06:17:45.522Z,6.80
2023-12-05T06:20:13.333Z,8.43
2023-12-05T06:22:41.068Z,15.23
2023-12-05T06:25:08.967Z,17.23
2023-12-05T06:27:36.856Z,19.80
2023-12-05T06:30:13.178Z,17.53
2023-12-05T06:32:48.668Z,15.27
2023-12-05T06:35:16.518Z,8.70
2023-12-05T06:37:44.324Z,9.90
2023-12-05T06:40:12.465Z,4.93
2023-12-05T06:42:41.885Z,4.90
2023-12-05T06:45:10.578Z,6.20
2023-12-05T06:47:39.967Z,4.90
2023-12-05T06:50:12.686Z,3.80
2023-12-05T06:52:41.535Z,6.70
2023-12-05T06:55:10.048Z,6.23
2023-12-05T06:57:38.037Z,9.77
2023-12-05T07:00:06.767Z,13.60
2023-12-05T07:02:34.627Z,40.73
2023-12-05T07:05:05.798Z,19.93
2023-12-05T07:07:34.031Z,15.47
2023-12-05T07:10:02.197Z,15.63
2023-12-05T07:12:30.094Z,14.00
2023-12-05T07:14:57.951Z,15.47
2023-12-05T07:17:25.750Z,12.47
2023-12-05T07:19:53.517Z,10.53
2023-12-05T07:22:21.442Z,7.93
2023-12-05T07:24:49.151Z,5.57
2023-12-05T07:27:16.980Z,5.33
2023-12-05T07:29:44.766Z,9.27
2023-12-05T07:32:12.716Z,25.30
2023-12-05T07:34:42.623Z,11.73
2023-12-05T07:37:10.488Z,10.87
2023-12-05T07:39:38.349Z,10.17
2023-12-05T07:42:08.827Z,17.03
2023-12-05T07:44:37.024Z,19.10
2023-12-05T07:47:07.102Z,25.63
2023-12-05T07:49:35.425Z,10.70
2023-12-05T07:52:05.383Z,9.00
2023-12-05T07:54:33.264Z,11.23
2023-12-05T07:57:01.003Z,14.47
2023-12-05T07:59:28.763Z,15.10
2023-12-05T08:01:56.503Z,10.73
2023-12-05T08:04:24.399Z,9.47
2023-12-05T08:06:52.230Z,10.17
2023-12-05T08:09:20.086Z,14.13
2023-12-05T08:11:47.872Z,14.97
2023-12-05T08:14:16.090Z,8.17
2023-12-05T08:16:43.872Z,8.77
2023-12-05T08:19:12.342Z,21.57
2023-12-05T08:21:40.173Z,18.90
2023-12-05T08:24:08.039Z,7.97
2023-12-05T08:26:36.009Z,8.90
2023-12-05T08:29:03.869Z,6.20
2023-12-05T08:31:31.667Z,6.70
2023-12-05T08:34:00.076Z,8.70
2023-12-05T08:36:28.044Z,6.67
2023-12-05T08:38:55.965Z,9.37
2023-12-05T08:41:23.823Z,10.37
2023-12-05T08:43:51.714Z,10.37
2023-12-05T08:46:19.533Z,9.43
2023-12-05T08:48:47.507Z,11.57
2023-12-05T08:51:16.143Z,7.10
2023-12-05T08:53:43.981Z,10.97
2023-12-05T08:56:12.076Z,9.47
2023-12-05T08:58:40.158Z,6.30
2023-12-05T09:01:11.209Z,6.27
2023-12-05T09:03:39.116Z,11.03
2023-12-05T09:06:07.202Z,7.20
2023-12-05T09:08:35.064Z,8.33
2023-12-05T09:11:02.927Z,7.77
2023-12-05T09:13:30.687Z,9.17
2023-12-05T09:15:58.565Z,16.40
2023-12-05T09:18:26.492Z,10.73
2023-12-05T09:20:54.296Z,9.87
2023-12-05T09:23:22.590Z,13.60
2023-12-05T09:25:50.413Z,27.10
2023-12-05T09:28:18.208Z,17.80
2023-12-05T09:30:46.240Z,13.20
2023-12-05T09:33:14.089Z,21.53
2023-12-05T09:35:41.853Z,11.37
2023-12-05T09:38:09.554Z,12.40
2023-12-05T09:40:37.306Z,12.63
2023-12-05T09:43:05.830Z,8.73
2023-12-05T09:45:41.150Z,10.37
2023-12-05T09:48:11.136Z,7.13
2023-12-05T09:50:39.174Z,9.53
2023-12-05T09:53:10.812Z,11.53
2023-12-05T09:55:39.460Z,12.30
2023-12-05T09:58:07.527Z,20.27
2023-12-05T10:00:35.392Z,16.37
2023-12-05T10:03:03.958Z,15.13
2023-12-05T10:05:31.901Z,14.90
2023-12-05T10:08:01.134Z,11.03
2023-12-05T10:10:28.979Z,14.07
2023-12-05T10:12:57.000Z,14.30
2023-12-05T10:15:24.857Z,16.27
2023-12-05T10:17:52.849Z,14.53
2023-12-05T10:20:20.878Z,15.83
2023-12-05T10:22:48.973Z,27.37
2023-12-05T10:25:17.451Z,18.37
2023-12-05T10:27:45.375Z,27.03
2023-12-05T10:30:15.643Z,26.00
2023-12-05T10:32:46.033Z,17.40
2023-12-05T10:35:13.858Z,24.20
2023-12-05T10:37:42.692Z,16.47
2023-12-05T10:40:11.086Z,19.30
2023-12-05T10:42:38.878Z,13.10
2023-12-05T10:45:07.619Z,15.50
2023-12-05T10:47:35.461Z,19.70
2023-12-05T10:50:03.782Z,19.07
2023-12-05T10:52:32.838Z,12.40
2023-12-05T10:55:00.886Z,11.17
2023-12-05T10:57:32.391Z,11.93
2023-12-05T11:00:00.689Z,8.13
2023-12-05T11:02:28.985Z,20.90
2023-12-05T11:04:56.903Z,11.83
2023-12-05T11:07:24.672Z,14.40
2023-12-05T11:09:52.433Z,13.23
2023-12-05T11:12:20.434Z,12.97
2023-12-05T11:14:49.238Z,7.67
2023-12-05T11:17:20.492Z,10.23
2023-12-05T11:20:23.640Z,15.77
2023-12-05T11:23:29.116Z,6.93
2023-12-05T11:26:08.861Z,9.90
2023-12-05T11:28:42.459Z,14.30
2023-12-05T11:31:22.644Z,7.50
2023-12-05T11:33:53.944Z,13.60
2023-12-05T11:36:30.139Z,18.67
2023-12-05T11:38:58.204Z,12.37
2023-12-05T11:41:26.021Z,11.27
2023-12-05T11:44:15.749Z,15.77
2023-12-05T11:46:44.000Z,55.23
2023-12-05T11:49:11.914Z,31.97
2023-12-05T11:51:39.819Z,10.80
2023-12-05T11:54:07.669Z,9.47
2023-12-05T11:56:35.687Z,10.23
2023-12-05T11:59:15.546Z,10.17
2023-12-05T12:01:44.659Z,21.50
2023-12-05T12:04:22.611Z,21.87
2023-12-05T12:06:51.017Z,16.13
2023-12-05T12:09:18.954Z,17.03
2023-12-05T12:11:46.921Z,11.87
2023-12-05T12:14:20.639Z,12.00
2023-12-05T12:16:49.364Z,13.00
2023-12-05T12:19:17.740Z,12.60
2023-12-05T12:21:46.107Z,11.20
2023-12-05T12:24:23.529Z,15.20
2023-12-05T12:26:55.050Z,22.53
2023-12-05T12:29:23.130Z,32.40
2023-12-05T12:31:53.494Z,36.43
2023-12-05T12:34:22.476Z,26.23
2023-12-05T12:36:50.379Z,14.17
2023-12-05T12:39:18.284Z,17.60
2023-12-05T12:41:49.689Z,14.97
2023-12-05T12:44:17.725Z,20.97
2023-12-05T12:46:45.796Z,18.50
2023-12-05T12:49:14.006Z,19.57
2023-12-05T12:51:44.644Z,27.57
2023-12-05T12:54:12.445Z,14.47
2023-12-05T12:56:40.726Z,22.40
2023-12-05T12:59:11.380Z,17.00
2023-12-05T13:01:41.233Z,13.63
2023-12-05T13:04:12.572Z,16.03
2023-12-05T13:06:49.697Z,20.73
2023-12-05T13:09:18.805Z,21.47
2023-12-05T13:11:46.794Z,13.57
2023-12-05T13:14:15.304Z,18.43
2023-12-05T13:16:43.394Z,16.43
2023-12-05T13:19:25.603Z,14.63
2023-12-05T13:22:21.035Z,11.57
2023-12-05T13:24:48.846Z,51.63
2023-12-05T13:27:16.688Z,53.50
2023-12-05T13:29:51.736Z,15.80
2023-12-05T13:32:19.543Z,13.63
2023-12-05T13:34:47.369Z,14.63
2023-12-05T13:37:15.200Z,10.40
2023-12-05T13:39:42.972Z,24.43
2023-12-05T13:42:10.756Z,14.60
2023-12-05T13:44:43.841Z,16.27
2023-12-05T13:47:11.646Z,18.07
2023-12-05T13:49:39.536Z,20.23
2023-12-05T13:52:07.515Z,14.63
2023-12-05T13:54:35.382Z,18.70
2023-12-05T13:57:03.120Z,16.47
2023-12-05T13:59:32.933Z,28.50
2023-12-05T14:02:00.692Z,19.07
2023-12-05T14:04:28.649Z,18.50
2023-12-05T14:06:56.618Z,22.60
2023-12-05T14:09:25.483Z,22.80
2023-12-05T14:11:54.727Z,23.70
2023-12-05T14:14:22.502Z,27.67
2023-12-05T14:16:50.489Z,26.90
2023-12-05T14:19:18.744Z,22.23
2023-12-05T14:21:48.107Z,26.53
2023-12-05T14:24:16.396Z,29.57
2023-12-05T14:26:44.165Z,16.03
2023-12-05T14:29:11.955Z,27.10
2023-12-05T14:31:39.984Z,26.43
2023-12-05T14:34:09.513Z,28.80
2023-12-05T14:36:37.480Z,32.33
2023-12-05T14:39:10.770Z,23.67
2023-12-05T14:41:39.239Z,17.97
2023-12-05T14:44:07.013Z,19.17
2023-12-05T14:46:34.778Z,19.03
2023-12-05T14:49:02.699Z,15.97
2023-12-05T14:51:30.543Z,17.57
2023-12-05T14:53:58.330Z,17.30
2023-12-05T14:56:26.061Z,22.70
2023-12-05T14:58:53.890Z,18.80
2023-12-05T15:01:21.685Z,21.90
2023-12-05T15:03:51.336Z,20.87
2023-12-05T15:06:19.449Z,20.27
2023-12-05T15:08:48.365Z,15.97
2023-12-05T15:11:16.389Z,20.93
2023-12-05T15:13:44.225Z,20.80
2023-12-05T15:16:11.980Z,24.23
2023-12-05T15:18:39.858Z,20.40
2023-12-05T15:21:09.163Z,21.07
2023-12-05T15:23:36.988Z,19.40
2023-12-05T15:26:05.033Z,29.80
2023-12-05T15:28:34.746Z,23.70
2023-12-05T15:31:02.687Z,25.63
2023-12-05T15:33:30.724Z,24.87
2023-12-05T15:35:58.664Z,25.37
2023-12-05T15:38:28.812Z,29.20
2023-12-05T15:40:56.651Z,22.00
2023-12-05T15:43:24.441Z,19.03
2023-12-05T15:45:52.565Z,26.80
2023-12-05T15:48:43.126Z,18.87
2023-12-05T15:51:08.141Z,19.57
2023-12-05T15:53:36.806Z,16.97
2023-12-05T15:56:04.974Z,19.70
2023-12-05T15:58:32.953Z,19.50
2023-12-05T16:01:00.868Z,17.17
2023-12-05T16:03:28.943Z,19.77
2023-12-05T16:05:56.712Z,18.97
2023-12-05T16:08:24.919Z,33.87
2023-12-05T16:10:53.743Z,25.37
2023-12-05T16:13:22.182Z,18.37
2023-12-05T16:15:50.296Z,22.70
2023-12-05T16:18:18.162Z,23.73
2023-12-05T16:20:46.088Z,20.43
2023-12-05T16:23:13.909Z,17.00
2023-12-05T16:25:42.200Z,19.77
2023-12-05T16:28:09.985Z,17.07
2023-12-05T16:30:38.104Z,15.00
2023-12-05T16:33:05.974Z,17.43
2023-12-05T16:35:33.851Z,18.23
2023-12-05T16:38:01.617Z,13.77
2023-12-05T16:40:29.500Z,12.37
2023-12-05T16:42:57.282Z,22.43
2023-12-05T16:45:27.061Z,21.83
2023-12-05T16:48:00.005Z,25.17
2023-12-05T16:50:28.081Z,31.77
2023-12-05T16:52:55.869Z,31.33
2023-12-05T16:55:23.641Z,25.07
2023-12-05T16:57:51.421Z,13.93
2023-12-05T17:00:19.681Z,23.97
2023-12-05T17:02:47.536Z,31.03
2023-12-05T17:05:15.502Z,36.17
2023-12-05T17:07:44.078Z,36.33
2023-12-05T17:10:11.916Z,23.13
2023-12-05T17:12:39.665Z,31.27
2023-12-05T17:15:07.790Z,31.40
2023-12-05T17:17:35.637Z,30.23
2023-12-05T17:20:04.599Z,37.37
2023-12-05T17:22:32.871Z,52.73
2023-12-05T17:25:01.289Z,34.17
2023-12-05T17:27:29.087Z,32.90
2023-12-05T17:29:57.069Z,19.97
2023-12-05T17:32:28.314Z,24.20
2023-12-05T17:34:57.197Z,30.00
2023-12-05T17:37:27.494Z,28.23
2023-12-05T17:39:55.370Z,28.23
2023-12-05T17:42:23.177Z,21.13
2023-12-05T17:44:54.166Z,15.53
2023-12-05T17:47:22.613Z,15.27
2023-12-05T17:49:53.095Z,19.53
2023-12-05T17:52:21.217Z,24.57
2023-12-05T17:54:49.083Z,20.50
2023-12-05T17:57:17.189Z,21.57
2023-12-05T17:59:46.449Z,28.70
2023-12-05T18:02:15.363Z,23.70
2023-12-05T18:04:43.372Z,23.23
2023-12-05T18:07:50.937Z,23.90
2023-12-05T18:09:59.336Z,24.50
2023-12-05T18:12:27.342Z,23.57
2023-12-05T18:14:55.202Z,22.17
2023-12-05T18:17:23.009Z,17.60
2023-12-05T18:19:51.232Z,20.27
2023-12-05T18:22:19.781Z,19.47
2023-12-05T18:24:47.803Z,19.97
2023-12-05T18:27:15.692Z,21.17
2023-12-05T18:29:45.629Z,20.50
2023-12-05T18:32:14.576Z,21.80
2023-12-05T18:34:42.612Z,21.77
2023-12-05T18:37:10.414Z,17.80
2023-12-05T18:39:38.206Z,28.73
2023-12-05T18:42:06.231Z,31.97
2023-12-05T18:44:33.970Z,53.97
2023-12-05T18:47:01.716Z,45.30
2023-12-05T18:49:29.717Z,50.07
2023-12-05T18:51:57.515Z,45.47
2023-12-05T18:54:25.586Z,49.13
2023-12-05T18:56:53.370Z,47.57
2023-12-05T18:59:21.343Z,48.50
2023-12-05T19:01:50.208Z,47.83
2023-12-05T19:04:18.033Z,49.90
2023-12-05T19:06:45.957Z,45.20
2023-12-05T19:09:13.916Z,49.87
2023-12-05T19:11:42.601Z,49.87
2023-12-05T19:14:10.695Z,51.00
2023-12-05T19:16:38.504Z,44.57
2023-12-05T19:19:09.151Z,33.53
2023-12-05T19:21:37.195Z,40.80
2023-12-05T19:24:04.983Z,42.97
2023-12-05T19:26:32.864Z,33.07
2023-12-05T19:29:01.328Z,29.20
2023-12-05T19:31:31.998Z,35.20
2023-12-05T19:33:59.986Z,21.80
2023-12-05T19:36:27.909Z,22.60
2023-12-05T19:38:55.778Z,29.13
2023-12-05T19:41:23.634Z,23.47
2023-12-05T19:43:52.695Z,25.67
2023-12-05T19:46:20.585Z,22.30
2023-12-05T19:48:50.123Z,20.03
2023-12-05T19:51:18.797Z,17.03
2023-12-05T19:53:46.648Z,19.97
2023-12-05T19:56:15.730Z,19.50
2023-12-05T19:58:43.674Z,18.23
2023-12-05T20:01:11.745Z,22.90
2023-12-05T20:03:39.672Z,23.70
2023-12-05T20:06:07.884Z,26.20
2023-12-05T20:08:35.618Z,23.07
2023-12-05T20:11:03.590Z,28.63
2023-12-05T20:13:31.664Z,16.47
2023-12-05T20:15:59.468Z,18.10
2023-12-05T20:18:27.315Z,17.57
2023-12-05T20:20:55.206Z,20.87
2023-12-05T20:23:23.971Z,18.37
2023-12-05T20:25:51.879Z,20.00
2023-12-05T20:28:20.378Z,17.77
2023-12-05T20:30:50.175Z,17.17
2023-12-05T20:33:18.131Z,22.80
2023-12-05T20:35:45.922Z,17.30
2023-12-05T20:38:13.736Z,16.20
2023-12-05T20:40:41.590Z,21.77
2023-12-05T20:43:09.459Z,24.60
2023-12-05T20:45:37.333Z,37.23
2023-12-05T20:48:05.368Z,40.63
2023-12-05T20:50:33.222Z,38.07
2023-12-05T20:53:01.125Z,40.07
2023-12-05T20:55:28.893Z,48.17
2023-12-05T20:57:56.688Z,65.90
2023-12-05T21:00:24.460Z,66.67
2023-12-05T21:02:52.243Z,54.93
2023-12-05T21:05:20.142Z,56.33
2023-12-05T21:07:48.443Z,62.77
2023-12-05T21:10:16.424Z,54.50
2023-12-05T21:12:44.209Z,48.50
2023-12-05T21:15:12.038Z,46.00
2023-12-05T21:17:39.980Z,50.10
2023-12-05T21:20:11.151Z,53.87
2023-12-05T21:22:39.051Z,43.30
2023-12-05T21:25:07.406Z,58.13
2023-12-05T21:27:35.276Z,31.00
2023-12-05T21:30:03.228Z,45.80
2023-12-05T21:32:30.971Z,25.53
2023-12-05T21:34:58.823Z,31.07
2023-12-05T21:37:26.678Z,61.60
2023-12-05T21:39:54.458Z,51.80
2023-12-05T21:42:22.588Z,47.40
2023-12-05T21:44:50.385Z,44.27
2023-12-05T21:47:19.314Z,37.13
2023-12-05T21:49:47.204Z,31.67
2023-12-05T21:52:15.199Z,30.57
2023-12-05T21:54:43.086Z,25.97
2023-12-05T21:57:10.916Z,30.20
2023-12-05T21:59:38.640Z,25.73
2023-12-05T22:02:06.641Z,31.33
2023-12-05T22:04:34.655Z,40.50
2023-12-05T22:07:02.652Z,29.23
2023-12-05T22:09:30.459Z,23.27
2023-12-05T22:11:58.351Z,30.43
2023-12-05T22:14:26.062Z,30.57
2023-12-05T22:16:53.877Z,25.23
2023-12-05T22:19:21.748Z,22.13
2023-12-05T22:21:49.657Z,36.73
2023-12-05T22:24:25.506Z,37.67
2023-12-05T22:27:00.381Z,33.50
2023-12-05T22:29:28.209Z,22.87
2023-12-05T22:31:57.090Z,29.83
2023-12-05T22:34:24.974Z,30.27
2023-12-05T22:36:53.418Z,31.57
2023-12-05T22:39:21.184Z,20.37
2023-12-05T22:41:49.008Z,29.97
2023-12-05T22:44:16.738Z,17.37
2023-12-05T22:46:44.587Z,18.37
2023-12-05T22:49:14.465Z,19.60
2023-12-05T22:51:43.371Z,23.23
2023-12-05T22:54:11.204Z,16.20
2023-12-05T22:56:39.111Z,19.60
2023-12-05T22:59:06.840Z,20.57
2023-12-05T23:01:34.751Z,14.07
2023-12-05T23:04:02.540Z,14.97
2023-12-05T23:06:30.335Z,21.27
2023-12-05T23:08:58.266Z,38.07
2023-12-05T23:11:26.271Z,32.27
2023-12-05T23:13:53.987Z,35.57
2023-12-05T23:16:21.808Z,26.27
2023-12-05T23:18:49.655Z,41.87
2023-12-05T23:21:17.514Z,32.20
2023-12-05T23:23:45.295Z,26.37
2023-12-05T23:26:13.228Z,23.40
2023-12-05T23:28:41.076Z,29.27
2023-12-05T23:31:08.983Z,33.63
2023-12-05T23:33:36.867Z,23.40
2023-12-05T23:36:04.920Z,25.87
2023-12-05T23:38:33.081Z,25.73
2023-12-05T23:41:12.374Z,32.43
2023-12-05T23:43:49.497Z,28.33
2023-12-05T23:46:17.345Z,28.10
2023-12-05T23:48:46.124Z,22.17
2023-12-05T23:51:14.651Z,19.77
2023-12-05T23:53:42.392Z,23.63
2023-12-05T23:56:12.103Z,17.40
2023-12-05T23:58:41.187Z,30.00
